Time;durP1;ratioP1;P1;durP2;ratioP2;P2;SDS_P1;SDS_P2;PMS_P1;PMS_P2;Temp;Humidity;BMP_temperature;BMP_pressure;BME280_temperature;BME280_humidity;BME280_pressure;Samples;Min_cycle;Max_cycle;Signal;HPM_P1;HPM_P2
2022/07/18 00:01:44;;;;;;;;;9.25;9.25;;;;;28.58;26.18;101517.75;5100326;27;45541;-51
2022/07/18 00:04:09;;;;;;;;;8.00;7.00;;;;;28.45;25.92;101499.69;5118767;27;46249;-54
2022/07/18 00:06:35;;;;;;;;;10.00;8.50;;;;;28.60;26.05;101520.28;5119153;27;45276;-57
2022/07/18 00:09:01;;;;;;;;;11.50;8.50;;;;;28.57;25.53;101527.38;5118345;27;45306;-58
2022/07/18 00:11:26;;;;;;;;;22.75;22.25;;;;;28.51;26.04;101514.53;5100886;27;45314;-56
2022/07/18 00:13:52;;;;;;;;;16.50;14.75;;;;;28.37;26.11;101492.81;5082908;27;47622;-59
2022/07/18 00:16:17;;;;;;;;;12.75;12.75;;;;;28.52;25.90;101516.19;5118631;27;45339;-55
2022/07/18 00:18:43;;;;;;;;;9.25;9.25;;;;;28.41;26.45;101502.31;5118530;27;45302;-52
2022/07/18 00:21:08;;;;;;;;;8.50;7.75;;;;;28.47;25.62;101516.31;5116334;27;45237;-59
2022/07/18 00:23:34;;;;;;;;;11.00;10.50;;;;;28.50;26.01;101516.50;5062483;27;46395;-57
2022/07/18 00:25:59;;;;;;;;;13.25;13.00;;;;;28.34;26.28;101493.41;5062404;27;45435;-56
2022/07/18 00:28:25;;;;;;;;;9.25;9.25;;;;;28.47;25.72;101514.31;5098113;27;45228;-53
2022/07/18 00:30:50;;;;;;;;;7.75;7.75;;;;;28.38;25.56;101516.25;5098191;27;45634;-55
2022/07/18 00:33:16;;;;;;;;;8.00;8.00;;;;;28.37;26.36;101514.53;5079086;27;45507;-60
2022/07/18 00:35:41;;;;;;;;;5.50;5.50;;;;;28.36;26.07;101508.06;5079422;27;45266;-55
2022/07/18 00:38:07;;;;;;;;;5.00;5.00;;;;;28.37;25.66;101511.72;5098129;27;45621;-54
2022/07/18 00:40:32;;;;;;;;;5.75;5.75;;;;;28.32;26.26;101504.19;5097985;27;45452;-53
2022/07/18 00:42:58;;;;;;;;;6.00;6.00;;;;;28.36;25.82;101519.38;5097509;27;45918;-57
2022/07/18 00:45:23;;;;;;;;;4.50;4.50;;;;;28.32;26.18;101512.66;5078989;27;45731;-58
2022/07/18 00:47:51;;;;;;;;;5.50;5.50;;;;;28.34;26.15;101510.34;5079530;27;45380;-55
2022/07/18 00:50:17;;;;;;;;;5.40;5.00;;;;;28.16;25.90;101477.44;5097478;27;45375;-58
2022/07/18 00:52:43;;;;;;;;;3.40;3.40;;;;;28.31;25.83;101515.78;5097524;27;46145;-56
2022/07/18 00:55:08;;;;;;;;;4.50;4.50;;;;;28.18;26.36;101480.78;5078984;27;45920;-53
2022/07/18 00:57:34;;;;;;;;;4.50;4.50;;;;;28.28;25.94;101498.34;5097498;27;45341;-52
2022/07/18 01:02:43;;;;;;;;;6.80;4.00;;;;;28.09;26.43;101475.03;5097593;27;45720;-57
2022/07/18 01:05:09;;;;;;;;;5.00;5.00;;;;;28.13;26.03;101485.38;5097033;27;45400;-58
2022/07/18 01:07:37;;;;;;;;;7.25;4.00;;;;;28.16;26.26;101498.00;5097447;27;45204;-54
2022/07/18 01:10:04;;;;;;;;;3.80;3.80;;;;;28.03;26.35;101496.03;5097504;27;45583;-55
2022/07/18 01:12:29;;;;;;;;;3.60;3.60;;;;;28.07;26.88;101506.38;5065813;27;46557;-57
2022/07/18 01:14:56;;;;;;;;;4.75;4.75;;;;;27.99;26.50;101488.22;5096976;27;45362;-57
2022/07/18 01:17:22;;;;;;;;;3.00;3.00;;;;;27.93;26.43;101472.53;5079340;27;45396;-54
2022/07/18 01:19:47;;;;;;;;;6.00;5.00;;;;;27.83;26.52;101450.16;5097284;27;45585;-51
2022/07/18 01:22:15;;;;;;;;;5.00;5.00;;;;;27.96;26.23;101471.91;5078792;27;46479;-53
2022/07/18 01:24:41;;;;;;;;;4.00;4.00;;;;;27.99;25.79;101485.38;5078836;27;45388;-52
2022/07/18 01:27:07;;;;;;;;;3.20;3.20;;;;;28.03;26.38;101496.88;5079220;27;45364;-51
2022/07/18 01:29:32;;;;;;;;;5.00;4.00;;;;;28.00;26.92;101494.66;5097440;27;45395;-58
2022/07/18 01:32:04;;;;;;;;;4.25;4.25;;;;;28.01;26.37;101497.19;5097288;27;45596;-58
2022/07/18 01:34:30;;;;;;;;;5.00;3.40;;;;;27.91;26.65;101479.63;5078804;27;45302;-58
2022/07/18 01:36:55;;;;;;;;;4.00;4.00;;;;;28.03;26.33;101512.97;5079049;27;45214;-55
2022/07/18 01:39:21;;;;;;;;;5.00;3.00;;;;;27.83;26.61;101484.00;5097465;27;45330;-51
2022/07/18 01:41:56;;;;;;;;;6.50;5.00;;;;;27.84;26.69;101494.13;5097095;27;46644;-55
2022/07/18 01:44:22;;;;;;;;;15.20;15.00;;;;;27.99;26.66;101507.09;5079438;27;45543;-57
2022/07/18 01:46:48;;;;;;;;;43.25;35.25;;;;;27.79;26.73;101486.63;5097171;27;45355;-55
2022/07/18 01:49:13;;;;;;;;;51.00;41.00;;;;;27.81;26.55;101500.41;5078847;27;45621;-55
2022/07/18 01:51:38;;;;;;;;;45.75;35.75;;;;;27.56;27.00;101463.91;5097057;27;46098;-57
2022/07/18 01:54:04;;;;;;;;;8.75;4.50;;;;;27.57;26.50;101473.22;5097146;27;45402;-59
2022/07/18 01:56:29;;;;;;;;;13.50;12.00;;;;;27.72;27.10;101500.28;5097067;27;45396;-54
2022/07/18 01:58:56;;;;;;;;;3.50;3.50;;;;;27.63;26.65;101477.63;5078887;27;45328;-54
2022/07/18 02:01:21;;;;;;;;;5.20;5.20;;;;;27.74;26.99;101487.56;5096931;27;45650;-55
2022/07/18 02:03:47;;;;;;;;;5.00;5.00;;;;;27.76;26.67;101480.78;5097012;27;45344;-56
2022/07/18 02:06:12;;;;;;;;;7.00;5.25;;;;;27.65;26.88;101461.25;5096842;27;45227;-55
2022/07/18 02:08:38;;;;;;;;;4.00;4.00;;;;;27.78;27.78;101482.13;5079001;27;45237;-55
2022/07/18 02:11:03;;;;;;;;;6.00;6.00;;;;;27.65;26.54;101458.44;5096435;27;45764;-52
2022/07/18 02:13:29;;;;;;;;;5.00;5.00;;;;;27.76;26.99;101472.31;5069054;27;45810;-52
2022/07/18 02:15:55;;;;;;;;;5.00;4.75;;;;;27.54;26.35;101440.00;5096530;27;45205;-56
2022/07/18 02:18:21;;;;;;;;;5.60;4.20;;;;;27.65;26.19;101466.03;5097057;27;45245;-55
2022/07/18 02:20:46;;;;;;;;;5.25;5.25;;;;;27.66;26.58;101464.88;5096448;27;45976;-58
2022/07/18 02:23:11;;;;;;;;;2.00;2.00;;;;;27.59;26.96;101460.50;5060831;27;45196;-55
2022/07/18 02:25:37;;;;;;;;;3.25;3.25;;;;;27.47;26.89;101449.72;5078311;27;45367;-53
2022/07/18 02:28:03;;;;;;;;;5.00;3.75;;;;;27.39;27.24;101439.16;5096733;27;45331;-57
2022/07/18 02:30:28;;;;;;;;;3.00;3.00;;;;;27.45;27.06;101457.66;5077793;27;46363;-57
2022/07/18 02:32:55;;;;;;;;;4.00;4.00;;;;;27.44;26.69;101455.13;5096130;27;45341;-55
2022/07/18 02:35:20;;;;;;;;;4.20;4.20;;;;;27.36;27.00;101453.84;5096215;27;45389;-56
2022/07/18 02:37:45;;;;;;;;;6.00;5.00;;;;;27.44;27.59;101474.84;5078296;27;45464;-51
2022/07/18 02:40:11;;;;;;;;;4.00;4.00;;;;;27.53;27.11;101480.63;5095981;27;46253;-55
2022/07/18 02:42:37;;;;;;;;;6.00;5.00;;;;;27.40;27.12;101479.44;5096433;27;45541;-53
2022/07/18 02:45:04;;;;;;;;;5.50;4.50;;;;;27.17;27.73;101451.09;5060889;27;45418;-57
2022/07/18 02:47:30;;;;;;;;;4.00;3.80;;;;;27.37;28.14;101468.78;5096232;27;45547;-54
2022/07/18 02:49:55;;;;;;;;;5.00;3.75;;;;;27.38;27.52;101467.63;5095972;27;46694;-58
2022/07/18 02:52:21;;;;;;;;;6.75;6.75;;;;;27.41;27.82;101475.47;5096063;27;45417;-55
2022/07/18 02:54:46;;;;;;;;;6.25;3.75;;;;;27.44;27.56;101469.22;5096190;27;45389;-54
2022/07/18 02:57:12;;;;;;;;;5.75;4.50;;;;;27.39;27.94;101464.50;5096016;27;45533;-55
2022/07/18 02:59:37;;;;;;;;;4.00;4.00;;;;;27.31;27.33;101459.56;5095784;27;45623;-53
2022/07/18 03:02:03;;;;;;;;;6.00;6.00;;;;;27.39;27.56;101481.44;5077612;27;45360;-53
2022/07/18 03:04:28;;;;;;;;;6.75;6.75;;;;;27.37;27.52;101474.41;5095818;27;45387;-54
2022/07/18 03:06:54;;;;;;;;;4.75;4.75;;;;;27.39;27.63;101486.22;5096032;27;45409;-52
2022/07/18 03:09:19;;;;;;;;;7.00;6.00;;;;;27.24;27.49;101476.03;5095547;27;46378;-56
2022/07/18 03:11:45;;;;;;;;;3.75;3.75;;;;;27.11;27.93;101464.41;5095561;27;45334;-54
2022/07/18 03:14:10;;;;;;;;;6.75;5.00;;;;;27.25;27.90;101483.38;5097026;27;45381;-52
2022/07/18 03:16:36;;;;;;;;;5.00;5.00;;;;;27.10;27.70;101459.13;5099675;27;45369;-54
2022/07/18 03:19:01;;;;;;;;;5.25;5.00;;;;;27.25;27.69;101480.56;5064195;27;46047;-52
2022/07/18 03:21:28;;;;;;;;;5.75;5.75;;;;;27.18;28.14;101476.16;5063700;27;45553;-58
2022/07/18 03:23:53;;;;;;;;;4.00;4.00;;;;;27.13;27.92;101481.03;5099041;27;45458;-59
2022/07/18 03:26:19;;;;;;;;;3.25;3.25;;;;;27.06;28.01;101470.16;5099670;27;45468;-54
2022/07/18 03:28:44;;;;;;;;;4.25;4.25;;;;;26.84;27.94;101451.88;5099519;27;46728;-55
2022/07/18 03:31:11;;;;;;;;;3.00;2.75;;;;;26.80;28.08;101446.00;5064049;27;45188;-54
2022/07/18 03:33:36;;;;;;;;;4.40;4.40;;;;;26.99;28.30;101452.81;5099409;27;45258;-55
2022/07/18 03:36:02;;;;;;;;;4.50;4.50;;;;;27.05;28.36;101465.69;5099504;27;45298;-53
2022/07/18 03:38:27;;;;;;;;;4.00;4.00;;;;;27.07;28.37;101463.38;5080612;27;47057;-54
2022/07/18 03:40:53;;;;;;;;;5.50;4.50;;;;;27.09;27.96;101463.06;5098977;27;45424;-53
2022/07/18 03:43:18;;;;;;;;;4.50;4.50;;;;;27.05;28.24;101457.22;5099264;27;45478;-53
2022/07/18 03:45:44;;;;;;;;;4.00;4.00;;;;;26.97;28.40;101455.94;5099282;27;45638;-53
2022/07/18 03:48:09;;;;;;;;;6.50;5.00;;;;;26.83;28.46;101424.03;5098881;27;45585;-57
2022/07/18 03:50:34;;;;;;;;;4.25;4.25;;;;;26.85;28.38;101424.56;5080290;27;45408;-54
2022/07/18 03:53:00;;;;;;;;;5.00;5.00;;;;;26.84;28.23;101420.91;5080666;27;45375;-53
2022/07/18 03:55:26;;;;;;;;;6.00;6.00;;;;;26.98;28.19;101449.16;5099370;27;45972;-56
2022/07/18 03:57:51;;;;;;;;;5.50;4.00;;;;;26.92;28.87;101441.94;5098404;27;45486;-57
2022/07/18 04:00:16;;;;;;;;;4.50;4.50;;;;;26.82;28.58;101426.00;5099017;27;45472;-55
2022/07/18 04:02:43;;;;;;;;;4.75;4.75;;;;;26.99;28.55;101456.44;5063761;27;45404;-52
2022/07/18 04:05:09;;;;;;;;;4.60;4.60;;;;;26.95;28.52;101452.59;5098991;27;45361;-53
2022/07/18 04:07:35;;;;;;;;;3.80;3.80;;;;;26.82;28.13;101433.63;5098689;27;45354;-56
2022/07/18 04:10:00;;;;;;;;;3.75;3.50;;;;;26.89;28.20;101454.63;5063416;27;45817;-57
2022/07/18 04:12:26;;;;;;;;;3.75;2.25;;;;;26.64;27.80;101414.44;5098930;27;45391;-58
2022/07/18 04:14:51;;;;;;;;;5.00;4.00;;;;;26.87;28.44;101468.16;5098786;27;45429;-56
2022/07/18 04:17:17;;;;;;;;;4.00;4.00;;;;;26.83;27.93;101472.72;5098348;27;46423;-54
2022/07/18 04:19:43;;;;;;;;;3.50;3.50;;;;;26.84;28.43;101465.13;5080170;27;45367;-54
2022/07/18 04:22:09;;;;;;;;;5.00;5.00;;;;;26.81;28.59;101475.03;5098161;27;45387;-56
2022/07/18 04:24:34;;;;;;;;;3.00;3.00;;;;;26.66;28.21;101474.13;5079803;27;45410;-58
2022/07/18 04:26:59;;;;;;;;;3.75;3.75;;;;;26.50;28.44;101478.28;5098161;27;46532;-55
2022/07/18 04:29:25;;;;;;;;;4.00;4.00;;;;;26.36;28.74;101467.78;5080349;27;45473;-55
2022/07/18 04:31:50;;;;;;;;;6.00;4.00;;;;;26.47;28.97;101474.09;5098179;27;45433;-52
2022/07/18 04:34:16;;;;;;;;;3.75;3.75;;;;;26.51;28.93;101472.34;5098596;27;45770;-56
2022/07/18 04:36:41;;;;;;;;;3.75;3.75;;;;;26.35;28.82;101446.41;5097977;27;45818;-55
2022/07/18 04:39:07;;;;;;;;;3.75;3.75;;;;;26.46;28.90;101469.59;5098133;27;45408;-54
2022/07/18 04:41:32;;;;;;;;;3.50;3.00;;;;;26.49;28.78;101451.28;5098310;27;45396;-50
2022/07/18 04:43:58;;;;;;;;;4.25;3.25;;;;;26.53;28.56;101441.09;5098608;27;45364;-52
2022/07/18 04:46:23;;;;;;;;;4.00;4.00;;;;;26.51;28.46;101426.47;5097804;27;45976;-58
2022/07/18 04:48:49;;;;;;;;;3.25;3.25;;;;;26.33;28.54;101392.44;5097980;27;45235;-55
2022/07/18 04:51:14;;;;;;;;;4.75;4.75;;;;;26.33;28.48;101381.19;5079755;27;45365;-52
2022/07/18 04:53:40;;;;;;;;;5.00;5.00;;;;;26.43;28.65;101397.06;5080423;27;45237;-54
2022/07/18 04:56:05;;;;;;;;;4.75;3.75;;;;;26.61;28.62;101434.78;5097523;27;46735;-57
2022/07/18 04:58:31;;;;;;;;;4.25;4.25;;;;;26.69;28.97;101427.63;5069050;27;45278;-56
2022/07/18 05:00:56;;;;;;;;;6.00;6.00;;;;;26.68;28.68;101419.50;5097437;27;45332;-53
2022/07/18 05:03:22;;;;;;;;;4.75;4.75;;;;;26.53;28.34;101391.25;5118900;27;45599;-50
2022/07/18 05:05:47;;;;;;;;;5.25;5.25;;;;;26.64;28.22;101414.44;5118122;27;45907;-55
2022/07/18 05:08:13;;;;;;;;;5.50;4.25;;;;;26.66;28.69;101409.38;5118140;27;45335;-54
2022/07/18 05:10:39;;;;;;;;;5.00;5.00;;;;;26.49;28.07;101369.69;5118575;27;45366;-57
2022/07/18 05:13:04;;;;;;;;;5.25;5.00;;;;;26.62;28.17;101401.84;5100245;27;45482;-54
2022/07/18 05:15:30;;;;;;;;;6.00;5.00;;;;;26.55;28.00;101410.66;5118275;27;46444;-56
2022/07/18 05:17:55;;;;;;;;;4.00;4.00;;;;;26.46;28.49;101395.63;5117990;27;45395;-55
2022/07/18 05:20:22;;;;;;;;;5.00;5.00;;;;;26.39;28.38;101391.22;5099984;27;45326;-56
2022/07/18 05:22:47;;;;;;;;;5.00;5.00;;;;;26.27;28.42;101368.31;5091598;27;45381;-58
2022/07/18 05:25:13;;;;;;;;;6.50;4.75;;;;;26.44;28.74;101392.25;5078397;27;45695;-53
2022/07/18 05:27:38;;;;;;;;;4.75;4.75;;;;;26.41;28.81;101392.88;5096972;27;45371;-51
2022/07/18 05:30:06;;;;;;;;;6.50;6.50;;;;;26.37;28.49;101385.03;5097369;27;45374;-52
2022/07/18 05:32:31;;;;;;;;;6.40;4.80;;;;;26.23;28.88;101356.84;5097013;27;45367;-51
2022/07/18 05:34:57;;;;;;;;;7.50;5.00;;;;;26.24;29.22;101366.94;5078263;27;45517;-55
2022/07/18 05:37:22;;;;;;;;;9.00;6.00;;;;;26.29;29.32;101371.66;5077793;27;45447;-55
2022/07/18 05:39:50;;;;;;;;;10.50;6.00;;;;;26.27;29.42;101382.38;5078967;27;45400;-55
2022/07/18 05:42:15;;;;;;;;;10.60;7.00;;;;;26.25;29.56;101390.31;5079261;27;45353;-58
2022/07/18 05:44:41;;;;;;;;;6.50;5.75;;;;;26.37;29.11;101427.25;5096913;27;46437;-52
2022/07/18 05:47:07;;;;;;;;;8.20;5.40;;;;;26.39;29.49;101444.69;5096482;27;45302;-54
2022/07/18 05:49:33;;;;;;;;;4.00;4.00;;;;;26.38;29.19;101447.78;5096976;27;45423;-53
2022/07/18 05:51:58;;;;;;;;;6.00;4.75;;;;;26.13;29.30;101410.38;5079036;27;45612;-54
2022/07/18 05:54:24;;;;;;;;;6.75;5.50;;;;;26.32;29.49;101432.97;5078664;27;46505;-56
2022/07/18 05:56:49;;;;;;;;;5.25;4.00;;;;;26.35;29.27;101445.56;5096651;27;45270;-56
2022/07/18 05:59:16;;;;;;;;;5.00;5.00;;;;;26.34;29.38;101438.25;5096619;27;45371;-55
2022/07/18 06:01:41;;;;;;;;;6.00;5.00;;;;;26.17;29.41;101417.09;5078710;27;45498;-51
2022/07/18 06:04:07;;;;;;;;;7.25;4.50;;;;;26.38;29.51;101437.38;5096640;27;46444;-51
2022/07/18 06:06:32;;;;;;;;;4.75;4.25;;;;;26.39;29.29;101430.59;5078005;27;45407;-55
2022/07/18 06:08:58;;;;;;;;;5.25;3.25;;;;;26.50;29.41;101430.44;5096934;27;45245;-55
2022/07/18 06:11:23;;;;;;;;;5.25;5.00;;;;;26.36;29.13;101407.88;5078358;27;45483;-55
2022/07/18 06:13:49;;;;;;;;;5.25;5.25;;;;;26.47;29.22;101425.44;5096112;27;46527;-51
2022/07/18 06:16:14;;;;;;;;;6.00;6.00;;;;;26.50;28.84;101436.06;5096782;27;45831;-52
2022/07/18 06:18:40;;;;;;;;;5.00;5.00;;;;;26.47;29.32;101425.44;5090670;27;45374;-58
2022/07/18 06:21:06;;;;;;;;;5.60;5.60;;;;;26.48;29.06;101419.50;5066894;27;45561;-55
2022/07/18 06:23:32;;;;;;;;;4.50;4.50;;;;;26.56;29.08;101426.41;5074012;28;46292;-56
2022/07/18 06:25:57;;;;;;;;;7.00;6.00;;;;;26.38;29.39;101386.72;5076245;27;45376;-50
2022/07/18 06:28:24;;;;;;;;;6.50;5.50;;;;;26.70;28.84;101429.31;5074653;28;45360;-54
2022/07/18 06:30:50;;;;;;;;;2.80;2.80;;;;;26.62;28.93;101418.75;5076173;27;45319;-56
2022/07/18 06:33:15;;;;;;;;;5.75;5.75;;;;;26.77;28.98;101438.19;5075949;27;46562;-53
2022/07/18 06:35:41;;;;;;;;;6.00;6.00;;;;;26.83;28.82;101436.13;5074471;28;45411;-57
2022/07/18 06:38:06;;;;;;;;;5.50;5.50;;;;;26.84;29.16;101432.16;5074813;28;45368;-53
2022/07/18 06:40:32;;;;;;;;;5.00;4.50;;;;;26.90;28.42;101438.56;5076332;27;45636;-55
2022/07/18 06:42:57;;;;;;;;;4.00;4.00;;;;;26.94;28.72;101439.63;5075865;28;46547;-51
2022/07/18 06:45:22;;;;;;;;;4.50;4.50;;;;;26.94;28.34;101448.09;5089876;27;45363;-48
2022/07/18 06:47:48;;;;;;;;;8.00;3.75;;;;;26.94;28.49;101445.25;5081184;27;45418;-52
2022/07/18 06:50:14;;;;;;;;;5.25;4.50;;;;;26.93;28.37;101444.44;5080301;27;45403;-52
2022/07/18 06:52:40;;;;;;;;;4.25;4.25;;;;;26.89;28.19;101426.44;5079486;27;45483;-55
2022/07/18 06:55:06;;;;;;;;;4.00;3.20;;;;;27.02;28.34;101440.94;5079461;27;45376;-51
2022/07/18 06:57:32;;;;;;;;;4.20;4.00;;;;;26.89;28.22;101417.19;5079397;27;45408;-51
2022/07/18 06:59:57;;;;;;;;;5.25;4.25;;;;;26.94;28.11;101417.09;5079663;27;45290;-49
2022/07/18 07:02:22;;;;;;;;;4.50;4.50;;;;;27.09;28.07;101443.34;5079395;27;46117;-49
2022/07/18 07:04:48;;;;;;;;;4.50;4.50;;;;;27.09;28.69;101435.72;5079244;28;45334;-55
2022/07/18 07:07:13;;;;;;;;;10.00;7.00;;;;;27.14;28.19;101438.47;5078173;28;45348;-47
2022/07/18 07:09:39;;;;;;;;;5.00;5.00;;;;;27.18;28.10;101435.88;5079572;27;45278;-50
2022/07/18 07:12:04;;;;;;;;;5.25;4.75;;;;;27.25;27.82;101443.94;5078651;27;45859;-51
2022/07/18 07:14:30;;;;;;;;;4.00;4.00;;;;;27.17;28.26;101432.19;5079329;27;45266;-53
2022/07/18 07:16:55;;;;;;;;;8.75;6.00;;;;;27.30;27.84;101447.47;5079207;27;45329;-51
2022/07/18 07:19:21;;;;;;;;;8.00;5.00;;;;;27.32;28.25;101450.81;5061588;27;47638;-55
2022/07/18 07:21:46;;;;;;;;;3.50;3.50;;;;;27.19;28.35;101424.28;5058051;27;46374;-51
2022/07/18 07:24:12;;;;;;;;;6.50;4.75;;;;;27.28;27.97;101444.16;5080332;27;45779;-53
2022/07/18 07:26:38;;;;;;;;;6.00;4.00;;;;;27.41;28.53;101448.13;5096350;27;45396;-51
2022/07/18 07:29:03;;;;;;;;;7.25;6.25;;;;;27.46;28.01;101428.31;5098858;27;45824;-53
2022/07/18 07:31:29;;;;;;;;;6.25;5.75;;;;;27.49;28.72;101429.66;5098957;27;45883;-50
2022/07/18 07:33:54;;;;;;;;;4.00;4.00;;;;;27.57;29.04;101428.13;5099076;27;45501;-50
2022/07/18 07:36:21;;;;;;;;;5.00;4.00;;;;;27.59;28.46;101431.50;5099215;27;45553;-53
2022/07/18 07:38:46;;;;;;;;;6.40;5.00;;;;;27.62;28.42;101435.66;5091771;27;45510;-53
2022/07/18 07:41:13;;;;;;;;;6.00;5.00;;;;;27.50;28.35;101407.94;5078368;28;45757;-49
2022/07/18 07:43:38;;;;;;;;;6.40;6.20;;;;;27.68;28.48;101425.94;5078678;28;45799;-51
2022/07/18 07:46:04;;;;;;;;;6.00;5.50;;;;;27.74;28.51;101422.72;5060499;28;45321;-50
2022/07/18 07:48:30;;;;;;;;;6.25;6.25;;;;;27.72;28.40;101405.28;5078753;28;45362;-49
2022/07/18 07:50:55;;;;;;;;;6.00;5.75;;;;;27.84;28.48;101420.81;5078420;28;45682;-48
2022/07/18 07:53:21;;;;;;;;;6.75;6.00;;;;;27.88;27.91;101413.41;5078366;28;45480;-54
2022/07/18 07:55:46;;;;;;;;;6.00;6.00;;;;;27.94;28.35;101420.63;5078529;28;45285;-49
2022/07/18 07:58:12;;;;;;;;;8.50;6.75;;;;;27.97;28.38;101419.16;5077854;28;45625;-49
2022/07/18 08:00:37;;;;;;;;;5.75;5.75;;;;;27.99;28.14;101408.38;5078182;28;46529;-50
2022/07/18 08:03:04;;;;;;;;;9.00;6.75;;;;;28.08;27.93;101408.47;5078350;28;45311;-49
2022/07/18 08:05:31;;;;;;;;;6.00;6.00;;;;;28.14;28.23;101402.44;5078331;28;45394;-51
2022/07/18 08:07:58;;;;;;;;;7.60;6.60;;;;;28.06;27.68;101383.41;5078690;28;45377;-53
2022/07/18 08:10:23;;;;;;;;;6.20;6.00;;;;;28.11;27.88;101383.28;5059834;28;47047;-51
2022/07/18 08:12:49;;;;;;;;;6.00;6.00;;;;;28.31;27.99;101403.75;5077642;28;45223;-51
2022/07/18 08:15:14;;;;;;;;;5.75;5.75;;;;;28.40;27.92;101409.50;5078343;28;45337;-54
2022/07/18 08:17:40;;;;;;;;;5.75;5.25;;;;;28.45;27.45;101400.06;5078326;28;45516;-49
2022/07/18 08:20:06;;;;;;;;;7.25;4.25;;;;;28.48;26.96;101399.44;5068337;27;46271;-52
2022/07/18 08:22:31;;;;;;;;;6.00;6.00;;;;;28.52;27.13;101394.81;5118770;27;45316;-49
2022/07/18 08:24:57;;;;;;;;;5.00;4.00;;;;;28.48;27.53;101376.84;5080096;27;45689;-48
2022/07/18 08:27:22;;;;;;;;;8.50;6.50;;;;;28.65;27.29;101398.75;5096327;27;45571;-50
2022/07/18 08:29:48;;;;;;;;;6.00;5.00;;;;;28.61;27.87;101381.63;5097550;27;46151;-49
2022/07/18 08:32:14;;;;;;;;;5.50;5.50;;;;;28.80;27.25;101400.34;5097960;27;45421;-49
2022/07/18 08:34:39;;;;;;;;;6.25;6.00;;;;;28.86;27.06;101392.63;5079456;27;45435;-48
2022/07/18 08:37:05;;;;;;;;;5.00;5.00;;;;;28.96;28.04;101403.63;5097974;27;45294;-55
2022/07/18 08:39:30;;;;;;;;;7.25;6.25;;;;;29.00;28.04;101399.00;5082930;27;47202;-48
2022/07/18 08:41:56;;;;;;;;;7.75;7.00;;;;;29.07;27.86;101395.72;5082505;27;45380;-50
2022/07/18 08:44:22;;;;;;;;;8.75;7.00;;;;;29.05;26.94;101381.09;5082841;27;45366;-49
2022/07/18 08:46:51;;;;;;;;;9.25;7.00;;;;;29.22;26.95;101391.66;5082864;27;45359;-48
2022/07/18 08:49:16;;;;;;;;;8.60;7.00;;;;;29.31;27.11;101403.84;5117918;27;45680;-51
2022/07/18 08:51:42;;;;;;;;;7.25;6.75;;;;;29.35;27.25;101399.19;5116299;27;45304;-50
2022/07/18 08:54:08;;;;;;;;;7.00;7.00;;;;;29.42;27.47;101395.91;5099550;27;45367;-51
2022/07/18 08:56:34;;;;;;;;;7.25;6.50;;;;;29.28;26.49;101376.22;5099786;27;45388;-49
2022/07/18 08:59:03;;;;;;;;;6.25;6.25;;;;;29.47;26.73;101394.97;5117663;27;46464;-51
2022/07/18 09:01:31;;;;;;;;;8.60;7.40;;;;;29.52;26.69;101389.19;5114113;27;45342;-48
2022/07/18 09:04:16;;;;;;;;;6.20;6.00;;;;;29.58;27.40;101399.19;5077749;27;45350;-52
2022/07/18 09:06:46;;;;;;;;;7.60;6.80;;;;;29.67;26.13;101398.38;5093991;27;45736;-54
2022/07/18 09:09:13;;;;;;;;;8.20;7.80;;;;;29.70;26.10;101392.03;5093807;27;46685;-52
2022/07/18 09:12:03;;;;;;;;;10.80;8.00;;;;;29.81;27.30;101399.06;5095460;27;45462;-51
2022/07/18 09:14:38;;;;;;;;;6.80;6.80;;;;;29.91;26.38;101391.47;5096199;27;45521;-51
2022/07/18 09:17:09;;;;;;;;;8.40;8.40;;;;;29.99;27.45;101401.97;5095179;27;45520;-54
2022/07/18 09:19:35;;;;;;;;;7.40;7.40;;;;;29.87;26.17;101366.66;5094194;27;45762;-55
2022/07/18 09:22:16;;;;;;;;;9.20;7.40;;;;;30.13;26.60;101397.03;5095444;27;45321;-54
2022/07/18 09:24:54;;;;;;;;;8.20;7.60;;;;;30.10;26.02;101377.84;5059206;27;45314;-51
2022/07/18 09:27:29;;;;;;;;;8.60;8.60;;;;;30.31;26.93;101397.03;5076973;27;45382;-55
2022/07/18 09:30:28;;;;;;;;;9.00;8.00;;;;;30.44;26.05;101398.03;5114659;27;47185;-51
2022/07/18 09:33:03;;;;;;;;;9.20;7.20;;;;;30.32;26.07;101364.75;5100008;27;45785;-55
2022/07/18 09:35:33;;;;;;;;;7.00;7.00;;;;;30.50;26.59;101390.19;5115716;27;45526;-52
2022/07/18 09:38:05;;;;;;;;;9.00;8.40;;;;;30.59;26.08;101393.88;5081414;27;45473;-53
2022/07/18 09:40:33;;;;;;;;;11.60;11.60;;;;;30.67;26.53;101400.69;5114290;27;46489;-51
2022/07/18 09:43:00;;;;;;;;;10.40;9.20;;;;;30.76;25.59;101409.22;5117415;27;45414;-52
2022/07/18 09:45:39;;;;;;;;;11.80;9.40;;;;;30.64;25.51;101378.72;5099495;27;45396;-51
2022/07/18 09:48:06;;;;;;;;;7.40;7.00;;;;;30.85;25.26;101410.06;5117673;27;45471;-55
2022/07/18 09:50:42;;;;;;;;;10.20;9.00;;;;;30.89;24.60;101407.38;5098956;27;45993;-49
2022/07/18 09:53:11;;;;;;;;;8.80;7.00;;;;;30.94;24.38;101410.84;5104140;27;45360;-51
2022/07/18 09:55:44;;;;;;;;;10.60;10.00;;;;;30.84;24.77;101389.38;5078351;27;45275;-52
2022/07/18 09:58:10;;;;;;;;;7.60;6.60;;;;;30.97;24.58;101403.69;5096643;27;45429;-52
2022/07/18 10:00:37;;;;;;;;;8.00;6.40;;;;;31.03;24.83;101404.34;5096481;27;46935;-55
2022/07/18 10:03:03;;;;;;;;;7.40;7.00;;;;;31.13;24.69;101401.16;5110507;27;45861;-53
2022/07/18 10:05:30;;;;;;;;;10.60;10.00;;;;;31.19;24.04;101399.81;5107116;27;45471;-50
2022/07/18 10:07:56;;;;;;;;;5.80;5.80;;;;;31.21;24.20;101396.63;5091644;27;45682;-56
2022/07/18 10:10:24;;;;;;;;;8.00;6.50;;;;;31.27;23.89;101383.13;5095106;27;46371;-49
2022/07/18 10:12:52;;;;;;;;;7.40;6.60;;;;;31.15;23.79;101358.31;5095216;27;45632;-55
2022/07/18 10:15:19;;;;;;;;;6.60;6.00;;;;;31.42;23.79;101387.41;5060883;27;45390;-54
2022/07/18 10:17:44;;;;;;;;;8.80;8.20;;;;;31.51;23.66;101376.84;5089211;27;45746;-52
2022/07/18 10:20:10;;;;;;;;;8.25;7.75;;;;;31.46;23.83;101360.03;5090691;27;45704;-53
2022/07/18 10:22:42;;;;;;;;;7.75;7.75;;;;;31.65;23.84;101380.28;5076949;27;45753;-55
2022/07/18 10:25:08;;;;;;;;;8.80;7.80;;;;;31.62;24.10;101357.44;5083652;27;45358;-55
2022/07/18 10:27:52;;;;;;;;;8.80;8.80;;;;;31.85;23.57;101371.38;5073646;27;45435;-49
2022/07/18 10:30:56;;;;;;;;;6.60;6.60;;;;;31.89;23.75;101376.00;5113719;27;46353;-52
2022/07/18 10:33:45;;;;;;;;;8.40;7.40;;;;;31.99;23.46;101373.94;5017659;28;45302;-52
2022/07/18 10:36:18;;;;;;;;;7.80;7.80;;;;;31.99;23.61;101356.91;5090959;27;46018;-56
2022/07/18 10:39:03;;;;;;;;;8.00;6.00;;;;;32.09;23.10;101369.84;5094642;27;45377;-50
2022/07/18 10:41:28;;;;;;;;;10.60;10.60;;;;;32.00;23.18;101350.06;5099050;27;47682;-52
2022/07/18 10:43:54;;;;;;;;;8.75;8.75;;;;;32.27;23.56;101367.75;5095673;27;45414;-54
2022/07/18 10:46:19;;;;;;;;;9.50;9.50;;;;;32.36;23.64;101359.13;5096195;27;45459;-54
2022/07/18 10:48:49;;;;;;;;;6.75;6.75;;;;;32.42;22.69;101363.44;5095016;27;45508;-53
2022/07/18 10:51:15;;;;;;;;;8.20;8.20;;;;;32.49;23.16;101368.56;5077473;27;45347;-54
2022/07/18 10:53:59;;;;;;;;;9.00;8.20;;;;;32.61;22.99;101370.63;5077986;27;45373;-49
2022/07/18 10:56:28;;;;;;;;;9.00;9.00;;;;;32.59;22.81;101368.97;5075779;27;45380;-54
2022/07/18 10:58:57;;;;;;;;;8.00;8.00;;;;;32.65;22.88;101363.09;5096578;27;45321;-54
2022/07/18 11:01:23;;;;;;;;;6.60;6.60;;;;;32.72;22.81;101367.00;5077520;27;46330;-53
2022/07/18 11:03:49;;;;;;;;;7.20;7.20;;;;;32.76;22.22;101361.44;5054157;27;45833;-49
2022/07/18 11:06:15;;;;;;;;;6.00;6.00;;;;;32.74;22.04;101341.09;5071093;27;45783;-53
2022/07/18 11:08:40;;;;;;;;;6.75;6.75;;;;;32.88;21.85;101352.16;5097504;27;45609;-51
2022/07/18 11:11:06;;;;;;;;;6.25;6.25;;;;;32.98;22.29;101356.59;5100855;27;46237;-56
2022/07/18 11:13:48;;;;;;;;;8.60;6.40;;;;;32.97;22.04;101338.69;5073261;27;45475;-60
2022/07/18 11:16:19;;;;;;;;;6.00;6.00;;;;;33.20;21.66;101361.00;5091776;27;45428;-51
2022/07/18 11:18:45;;;;;;;;;5.60;5.60;;;;;33.30;21.44;101350.34;5073204;27;45479;-50
2022/07/18 11:21:26;;;;;;;;;7.00;7.00;;;;;33.38;21.85;101347.38;5099884;27;46805;-50
2022/07/18 11:24:08;;;;;;;;;9.20;8.60;;;;;33.47;21.44;101340.75;5109713;27;45482;-49
2022/07/18 11:26:34;;;;;;;;;8.80;8.00;;;;;33.54;21.29;101332.47;5071128;28;45844;-55